Terminal Aerodrome Forecast
Issued by NWS Shreveport, LA

Home | Current Version | Previous Version | Text Only | Print | Product List | Glossary On
Versions: 1 2 3 4 5 6 7 8 9 10 11 12 13 14 15 16 17 18 19 20
428
FTUS44 KSHV 300949 AAA
TAFLFK
TAF AMD
KLFK 300949Z 3010/3106 VRB03KT 3SM BR SCT045 BKN150 OVC250
      TEMPO 3010/3013 1SM BR BKN030 OVC045
     FM301400 19004KT P6SM SCT025 BKN045 OVC150
     FM301600 20004KT P6SM BKN045 OVC150
     FM302100 14006KT P6SM VCSH BKN040 OVC060
     FM310000 14007KT P6SM VCTS BKN045CB OVC070
     FM310300 13003KT P6SM SCT090 SCT180=

USA.gov is the U.S. government's official web portal to all federal, state and local government web resources and services.